Terminal Aerodrome Forecast
Issued by NWS Blacksburg, VA

Current Version | Previous Version | Graphics & Text | Print | Product List | Glossary On
Versions: 1 2 3 4 5 6 7 8 9 10 11 12 13 14 15 16 17 18 19 20 21 22 23 24 25 26 27 28
000
FTUS41 KRNK 260548
TAFBLF
TAF
KBLF 260548Z 2606/2706 26005KT P6SM SCT060
      TEMPO 2606/2608 BKN060
     FM261400 28011G21KT P6SM SCT050 SCT150
     FM262300 29006KT P6SM BKN120=

USA.gov is the U.S. government's official web portal to all federal, state and local government web resources and services.